sensor_id;sensor_type;location;lat;lon;timestamp;P1;durP1;ratioP1;P2;durP2;ratioP2
48847;SDS011;36611;51.638;5.784;2023-01-08T00:01:11;4.35;;;2.72;;
48847;SDS011;36611;51.638;5.784;2023-01-08T00:03:37;3.78;;;2.80;;
48847;SDS011;36611;51.638;5.784;2023-01-08T00:06:06;4.05;;;2.70;;
48847;SDS011;36611;51.638;5.784;2023-01-08T00:08:35;4.32;;;3.45;;
48847;SDS011;36611;51.638;5.784;2023-01-08T00:11:02;3.45;;;2.88;;
48847;SDS011;36611;51.638;5.784;2023-01-08T00:13:28;4.00;;;3.08;;
48847;SDS011;36611;51.638;5.784;2023-01-08T00:15:55;5.50;;;3.45;;
48847;SDS011;36611;51.638;5.784;2023-01-08T00:18:22;4.90;;;2.90;;
48847;SDS011;36611;51.638;5.784;2023-01-08T00:20:50;3.30;;;2.85;;
48847;SDS011;36611;51.638;5.784;2023-01-08T00:23:17;4.18;;;3.50;;
48847;SDS011;36611;51.638;5.784;2023-01-08T00:25:44;3.85;;;2.92;;
48847;SDS011;36611;51.638;5.784;2023-01-08T00:28:11;4.00;;;3.05;;
48847;SDS011;36611;51.638;5.784;2023-01-08T00:30:40;5.65;;;3.20;;
48847;SDS011;36611;51.638;5.784;2023-01-08T00:33:07;4.15;;;3.00;;
48847;SDS011;36611;51.638;5.784;2023-01-08T00:35:36;6.28;;;2.92;;
48847;SDS011;36611;51.638;5.784;2023-01-08T00:38:04;4.38;;;3.15;;
48847;SDS011;36611;51.638;5.784;2023-01-08T00:40:33;5.85;;;2.97;;
48847;SDS011;36611;51.638;5.784;2023-01-08T00:43:01;4.80;;;3.15;;
48847;SDS011;36611;51.638;5.784;2023-01-08T00:45:28;5.65;;;3.40;;
48847;SDS011;36611;51.638;5.784;2023-01-08T00:47:55;3.75;;;3.03;;
48847;SDS011;36611;51.638;5.784;2023-01-08T00:50:22;6.97;;;3.47;;
48847;SDS011;36611;51.638;5.784;2023-01-08T00:52:49;4.65;;;2.80;;
48847;SDS011;36611;51.638;5.784;2023-01-08T00:55:15;4.85;;;2.92;;
48847;SDS011;36611;51.638;5.784;2023-01-08T00:57:42;4.97;;;2.97;;
48847;SDS011;36611;51.638;5.784;2023-01-08T01:00:10;4.22;;;3.00;;
48847;SDS011;36611;51.638;5.784;2023-01-08T01:02:39;4.45;;;2.97;;
48847;SDS011;36611;51.638;5.784;2023-01-08T01:05:06;4.32;;;2.80;;
48847;SDS011;36611;51.638;5.784;2023-01-08T01:07:34;5.03;;;2.92;;
48847;SDS011;36611;51.638;5.784;2023-01-08T01:10:01;3.95;;;2.72;;
48847;SDS011;36611;51.638;5.784;2023-01-08T01:12:28;3.60;;;2.80;;
48847;SDS011;36611;51.638;5.784;2023-01-08T01:14:55;7.38;;;3.20;;
48847;SDS011;36611;51.638;5.784;2023-01-08T01:17:21;3.30;;;2.72;;
48847;SDS011;36611;51.638;5.784;2023-01-08T01:19:48;5.35;;;3.10;;
48847;SDS011;36611;51.638;5.784;2023-01-08T01:22:14;5.38;;;3.00;;
48847;SDS011;36611;51.638;5.784;2023-01-08T01:24:41;3.88;;;2.78;;
48847;SDS011;36611;51.638;5.784;2023-01-08T01:27:07;6.20;;;2.97;;
48847;SDS011;36611;51.638;5.784;2023-01-08T01:29:34;4.93;;;2.80;;
48847;SDS011;36611;51.638;5.784;2023-01-08T01:32:00;5.20;;;2.90;;
48847;SDS011;36611;51.638;5.784;2023-01-08T01:34:27;3.67;;;2.85;;
48847;SDS011;36611;51.638;5.784;2023-01-08T01:36:53;4.55;;;2.72;;
48847;SDS011;36611;51.638;5.784;2023-01-08T01:39:20;5.70;;;3.15;;
48847;SDS011;36611;51.638;5.784;2023-01-08T01:41:47;5.47;;;3.10;;
48847;SDS011;36611;51.638;5.784;2023-01-08T01:46:59;5.80;;;3.15;;
48847;SDS011;36611;51.638;5.784;2023-01-08T01:49:29;5.22;;;2.78;;
48847;SDS011;36611;51.638;5.784;2023-01-08T01:51:58;6.75;;;3.40;;
48847;SDS011;36611;51.638;5.784;2023-01-08T01:54:29;5.53;;;2.90;;
48847;SDS011;36611;51.638;5.784;2023-01-08T01:56:57;3.97;;;3.03;;
48847;SDS011;36611;51.638;5.784;2023-01-08T01:59:25;8.95;;;3.40;;
48847;SDS011;36611;51.638;5.784;2023-01-08T02:01:52;3.72;;;2.95;;
48847;SDS011;36611;51.638;5.784;2023-01-08T02:04:20;4.72;;;3.30;;
48847;SDS011;36611;51.638;5.784;2023-01-08T02:09:36;4.20;;;3.50;;
48847;SDS011;36611;51.638;5.784;2023-01-08T02:12:18;7.32;;;3.35;;
48847;SDS011;36611;51.638;5.784;2023-01-08T02:20:19;8.98;;;3.63;;
48847;SDS011;36611;51.638;5.784;2023-01-08T02:28:39;2.13;;;1.20;;
48847;SDS011;36611;51.638;5.784;2023-01-08T02:31:10;2.65;;;1.20;;
48847;SDS011;36611;51.638;5.784;2023-01-08T02:33:38;2.95;;;1.30;;
48847;SDS011;36611;51.638;5.784;2023-01-08T02:38:48;1.30;;;0.90;;
48847;SDS011;36611;51.638;5.784;2023-01-08T02:41:29;3.85;;;1.42;;
48847;SDS011;36611;51.638;5.784;2023-01-08T02:44:06;2.25;;;1.20;;
48847;SDS011;36611;51.638;5.784;2023-01-08T02:46:37;2.63;;;0.88;;
48847;SDS011;36611;51.638;5.784;2023-01-08T02:49:08;3.25;;;1.08;;
48847;SDS011;36611;51.638;5.784;2023-01-08T02:51:40;3.05;;;1.33;;
48847;SDS011;36611;51.638;5.784;2023-01-08T02:54:20;3.40;;;1.00;;
48847;SDS011;36611;51.638;5.784;2023-01-08T02:56:54;3.00;;;1.20;;
48847;SDS011;36611;51.638;5.784;2023-01-08T02:59:26;5.95;;;1.48;;
48847;SDS011;36611;51.638;5.784;2023-01-08T03:01:56;3.15;;;1.10;;
48847;SDS011;36611;51.638;5.784;2023-01-08T03:04:25;2.60;;;1.08;;
48847;SDS011;36611;51.638;5.784;2023-01-08T03:06:56;3.25;;;1.05;;
48847;SDS011;36611;51.638;5.784;2023-01-08T03:09:23;1.65;;;0.95;;
48847;SDS011;36611;51.638;5.784;2023-01-08T03:11:54;1.85;;;0.90;;
48847;SDS011;36611;51.638;5.784;2023-01-08T03:14:27;2.30;;;0.93;;
48847;SDS011;36611;51.638;5.784;2023-01-08T03:19:42;3.05;;;0.90;;
48847;SDS011;36611;51.638;5.784;2023-01-08T03:22:13;2.58;;;0.80;;
48847;SDS011;36611;51.638;5.784;2023-01-08T03:24:43;3.03;;;1.00;;
48847;SDS011;36611;51.638;5.784;2023-01-08T03:27:15;4.38;;;1.27;;
48847;SDS011;36611;51.638;5.784;2023-01-08T03:29:45;2.75;;;1.10;;
48847;SDS011;36611;51.638;5.784;2023-01-08T03:32:14;2.33;;;1.10;;
48847;SDS011;36611;51.638;5.784;2023-01-08T03:34:42;3.97;;;0.88;;
48847;SDS011;36611;51.638;5.784;2023-01-08T03:37:12;4.28;;;0.95;;
48847;SDS011;36611;51.638;5.784;2023-01-08T03:39:45;4.72;;;1.23;;
48847;SDS011;36611;51.638;5.784;2023-01-08T03:42:18;4.88;;;1.10;;
48847;SDS011;36611;51.638;5.784;2023-01-08T03:44:46;4.60;;;0.82;;
48847;SDS011;36611;51.638;5.784;2023-01-08T03:47:12;2.95;;;1.08;;
48847;SDS011;36611;51.638;5.784;2023-01-08T03:49:41;5.82;;;1.30;;
48847;SDS011;36611;51.638;5.784;2023-01-08T03:52:19;3.47;;;1.00;;
48847;SDS011;36611;51.638;5.784;2023-01-08T03:54:46;4.03;;;1.00;;
48847;SDS011;36611;51.638;5.784;2023-01-08T03:57:13;4.28;;;0.98;;
48847;SDS011;36611;51.638;5.784;2023-01-08T03:59:39;3.47;;;1.33;;
48847;SDS011;36611;51.638;5.784;2023-01-08T04:02:06;3.67;;;1.10;;
48847;SDS011;36611;51.638;5.784;2023-01-08T04:04:34;3.28;;;0.90;;
48847;SDS011;36611;51.638;5.784;2023-01-08T04:07:01;3.45;;;1.23;;
48847;SDS011;36611;51.638;5.784;2023-01-08T04:09:27;3.80;;;1.00;;
48847;SDS011;36611;51.638;5.784;2023-01-08T04:11:54;4.55;;;0.90;;
48847;SDS011;36611;51.638;5.784;2023-01-08T04:14:20;4.55;;;1.10;;
48847;SDS011;36611;51.638;5.784;2023-01-08T04:16:47;3.42;;;1.27;;
48847;SDS011;36611;51.638;5.784;2023-01-08T04:19:13;3.38;;;0.98;;
48847;SDS011;36611;51.638;5.784;2023-01-08T04:21:40;4.35;;;1.50;;
48847;SDS011;36611;51.638;5.784;2023-01-08T04:24:07;2.85;;;1.10;;
48847;SDS011;36611;51.638;5.784;2023-01-08T04:26:34;3.20;;;1.27;;
48847;SDS011;36611;51.638;5.784;2023-01-08T04:29:01;2.78;;;0.93;;
48847;SDS011;36611;51.638;5.784;2023-01-08T04:31:29;3.38;;;1.20;;
48847;SDS011;36611;51.638;5.784;2023-01-08T04:33:57;3.05;;;1.15;;
48847;SDS011;36611;51.638;5.784;2023-01-08T04:36:26;3.55;;;1.15;;
48847;SDS011;36611;51.638;5.784;2023-01-08T04:38:52;4.32;;;1.20;;
48847;SDS011;36611;51.638;5.784;2023-01-08T04:41:19;3.67;;;1.25;;
48847;SDS011;36611;51.638;5.784;2023-01-08T04:43:45;5.88;;;1.40;;
48847;SDS011;36611;51.638;5.784;2023-01-08T04:46:12;3.15;;;1.08;;
48847;SDS011;36611;51.638;5.784;2023-01-08T04:48:38;3.05;;;1.23;;
48847;SDS011;36611;51.638;5.784;2023-01-08T04:51:05;5.28;;;1.35;;
48847;SDS011;36611;51.638;5.784;2023-01-08T04:53:33;2.33;;;1.38;;
48847;SDS011;36611;51.638;5.784;2023-01-08T04:56:03;2.60;;;1.25;;
48847;SDS011;36611;51.638;5.784;2023-01-08T04:58:32;3.42;;;1.23;;
48847;SDS011;36611;51.638;5.784;2023-01-08T05:00:59;5.88;;;1.73;;
48847;SDS011;36611;51.638;5.784;2023-01-08T05:03:26;4.05;;;1.30;;
48847;SDS011;36611;51.638;5.784;2023-01-08T05:05:52;2.97;;;1.52;;
48847;SDS011;36611;51.638;5.784;2023-01-08T05:08:19;2.47;;;1.20;;
48847;SDS011;36611;51.638;5.784;2023-01-08T05:10:46;2.10;;;1.00;;
48847;SDS011;36611;51.638;5.784;2023-01-08T05:13:14;2.20;;;0.82;;
48847;SDS011;36611;51.638;5.784;2023-01-08T05:15:40;1.48;;;0.82;;
48847;SDS011;36611;51.638;5.784;2023-01-08T05:18:08;1.42;;;0.80;;
48847;SDS011;36611;51.638;5.784;2023-01-08T05:20:35;1.15;;;0.80;;
48847;SDS011;36611;51.638;5.784;2023-01-08T05:23:01;2.80;;;1.10;;
48847;SDS011;36611;51.638;5.784;2023-01-08T05:25:28;2.30;;;1.00;;
48847;SDS011;36611;51.638;5.784;2023-01-08T05:27:55;2.33;;;1.17;;
48847;SDS011;36611;51.638;5.784;2023-01-08T05:30:21;3.05;;;1.05;;
48847;SDS011;36611;51.638;5.784;2023-01-08T05:32:48;3.17;;;1.67;;
48847;SDS011;36611;51.638;5.784;2023-01-08T05:35:14;4.68;;;1.52;;
48847;SDS011;36611;51.638;5.784;2023-01-08T05:37:41;6.15;;;1.60;;
48847;SDS011;36611;51.638;5.784;2023-01-08T05:40:08;2.55;;;1.65;;
48847;SDS011;36611;51.638;5.784;2023-01-08T05:42:35;3.97;;;1.63;;
48847;SDS011;36611;51.638;5.784;2023-01-08T05:45:03;4.43;;;2.03;;
48847;SDS011;36611;51.638;5.784;2023-01-08T05:47:31;5.47;;;1.70;;
48847;SDS011;36611;51.638;5.784;2023-01-08T05:49:58;2.50;;;1.50;;
48847;SDS011;36611;51.638;5.784;2023-01-08T05:52:25;3.75;;;1.63;;
48847;SDS011;36611;51.638;5.784;2023-01-08T05:54:52;3.55;;;1.95;;
48847;SDS011;36611;51.638;5.784;2023-01-08T05:57:19;3.80;;;1.60;;
48847;SDS011;36611;51.638;5.784;2023-01-08T05:59:45;3.28;;;1.55;;
48847;SDS011;36611;51.638;5.784;2023-01-08T06:02:12;3.28;;;1.58;;
48847;SDS011;36611;51.638;5.784;2023-01-08T06:04:38;3.55;;;1.52;;
48847;SDS011;36611;51.638;5.784;2023-01-08T06:07:05;3.55;;;1.65;;
48847;SDS011;36611;51.638;5.784;2023-01-08T06:09:32;5.43;;;1.67;;
48847;SDS011;36611;51.638;5.784;2023-01-08T06:12:00;2.97;;;1.67;;
48847;SDS011;36611;51.638;5.784;2023-01-08T06:14:27;4.53;;;1.60;;
48847;SDS011;36611;51.638;5.784;2023-01-08T06:16:54;4.72;;;1.55;;
48847;SDS011;36611;51.638;5.784;2023-01-08T06:19:20;4.45;;;1.63;;
48847;SDS011;36611;51.638;5.784;2023-01-08T06:21:47;3.90;;;1.48;;
48847;SDS011;36611;51.638;5.784;2023-01-08T06:24:14;4.43;;;1.40;;
48847;SDS011;36611;51.638;5.784;2023-01-08T06:26:40;3.03;;;1.40;;
48847;SDS011;36611;51.638;5.784;2023-01-08T06:29:07;4.32;;;1.63;;
48847;SDS011;36611;51.638;5.784;2023-01-08T06:31:34;4.93;;;1.30;;
48847;SDS011;36611;51.638;5.784;2023-01-08T06:34:01;3.60;;;1.50;;
48847;SDS011;36611;51.638;5.784;2023-01-08T06:36:28;4.40;;;1.50;;
48847;SDS011;36611;51.638;5.784;2023-01-08T06:38:54;5.13;;;1.88;;
48847;SDS011;36611;51.638;5.784;2023-01-08T06:41:21;4.78;;;1.85;;
48847;SDS011;36611;51.638;5.784;2023-01-08T06:43:47;3.15;;;1.10;;
48847;SDS011;36611;51.638;5.784;2023-01-08T06:46:14;3.28;;;1.20;;
48847;SDS011;36611;51.638;5.784;2023-01-08T06:48:40;1.98;;;1.10;;
48847;SDS011;36611;51.638;5.784;2023-01-08T06:51:07;1.80;;;0.90;;
48847;SDS011;36611;51.638;5.784;2023-01-08T06:53:34;3.78;;;1.30;;
48847;SDS011;36611;51.638;5.784;2023-01-08T06:56:01;4.57;;;1.30;;
48847;SDS011;36611;51.638;5.784;2023-01-08T06:58:28;3.05;;;1.20;;
48847;SDS011;36611;51.638;5.784;2023-01-08T07:00:55;2.33;;;1.00;;
48847;SDS011;36611;51.638;5.784;2023-01-08T07:03:24;3.90;;;1.13;;
48847;SDS011;36611;51.638;5.784;2023-01-08T07:05:51;5.30;;;1.40;;
48847;SDS011;36611;51.638;5.784;2023-01-08T07:08:18;4.10;;;1.20;;
48847;SDS011;36611;51.638;5.784;2023-01-08T07:10:44;3.38;;;1.02;;
48847;SDS011;36611;51.638;5.784;2023-01-08T07:13:11;2.63;;;1.00;;
48847;SDS011;36611;51.638;5.784;2023-01-08T07:15:38;5.88;;;1.20;;
48847;SDS011;36611;51.638;5.784;2023-01-08T07:18:07;5.15;;;1.30;;
48847;SDS011;36611;51.638;5.784;2023-01-08T07:20:34;4.80;;;1.20;;
48847;SDS011;36611;51.638;5.784;2023-01-08T07:23:02;4.63;;;1.17;;
48847;SDS011;36611;51.638;5.784;2023-01-08T07:25:29;3.22;;;1.33;;
48847;SDS011;36611;51.638;5.784;2023-01-08T07:27:57;4.55;;;0.93;;
48847;SDS011;36611;51.638;5.784;2023-01-08T07:30:24;3.03;;;1.27;;
48847;SDS011;36611;51.638;5.784;2023-01-08T07:32:59;5.78;;;1.40;;
48847;SDS011;36611;51.638;5.784;2023-01-08T07:35:26;8.35;;;1.40;;
48847;SDS011;36611;51.638;5.784;2023-01-08T07:37:54;7.60;;;1.50;;
48847;SDS011;36611;51.638;5.784;2023-01-08T07:40:20;6.45;;;1.58;;
48847;SDS011;36611;51.638;5.784;2023-01-08T07:42:47;6.35;;;1.33;;
48847;SDS011;36611;51.638;5.784;2023-01-08T07:45:13;6.15;;;1.75;;
48847;SDS011;36611;51.638;5.784;2023-01-08T07:47:40;2.58;;;1.35;;
48847;SDS011;36611;51.638;5.784;2023-01-08T07:50:07;5.40;;;1.48;;
48847;SDS011;36611;51.638;5.784;2023-01-08T07:52:34;6.18;;;1.75;;
48847;SDS011;36611;51.638;5.784;2023-01-08T07:55:00;4.40;;;1.15;;
48847;SDS011;36611;51.638;5.784;2023-01-08T07:57:28;4.22;;;1.33;;
48847;SDS011;36611;51.638;5.784;2023-01-08T07:59:54;8.70;;;1.50;;
48847;SDS011;36611;51.638;5.784;2023-01-08T08:02:21;6.43;;;1.27;;
48847;SDS011;36611;51.638;5.784;2023-01-08T08:04:48;4.78;;;1.10;;
48847;SDS011;36611;51.638;5.784;2023-01-08T08:07:14;8.48;;;1.45;;
48847;SDS011;36611;51.638;5.784;2023-01-08T08:09:41;4.03;;;1.10;;
48847;SDS011;36611;51.638;5.784;2023-01-08T08:12:07;8.40;;;1.83;;
48847;SDS011;36611;51.638;5.784;2023-01-08T08:14:34;8.30;;;1.35;;
48847;SDS011;36611;51.638;5.784;2023-01-08T08:17:00;3.80;;;1.10;;
48847;SDS011;36611;51.638;5.784;2023-01-08T08:19:27;5.20;;;1.48;;
48847;SDS011;36611;51.638;5.784;2023-01-08T08:21:53;7.05;;;1.70;;
48847;SDS011;36611;51.638;5.784;2023-01-08T08:24:20;5.50;;;1.75;;
48847;SDS011;36611;51.638;5.784;2023-01-08T08:26:47;8.15;;;1.45;;
48847;SDS011;36611;51.638;5.784;2023-01-08T08:29:13;8.23;;;1.50;;
48847;SDS011;36611;51.638;5.784;2023-01-08T08:31:40;5.63;;;1.88;;
48847;SDS011;36611;51.638;5.784;2023-01-08T08:34:07;7.75;;;1.52;;
48847;SDS011;36611;51.638;5.784;2023-01-08T08:36:34;5.28;;;2.05;;
48847;SDS011;36611;51.638;5.784;2023-01-08T08:39:01;6.88;;;1.73;;
48847;SDS011;36611;51.638;5.784;2023-01-08T08:41:28;5.28;;;1.90;;
48847;SDS011;36611;51.638;5.784;2023-01-08T08:43:54;6.68;;;1.75;;
48847;SDS011;36611;51.638;5.784;2023-01-08T08:46:21;5.60;;;1.58;;
48847;SDS011;36611;51.638;5.784;2023-01-08T08:48:47;4.85;;;1.48;;
48847;SDS011;36611;51.638;5.784;2023-01-08T08:51:14;5.70;;;2.00;;
48847;SDS011;36611;51.638;5.784;2023-01-08T08:53:40;6.43;;;1.73;;
48847;SDS011;36611;51.638;5.784;2023-01-08T08:56:07;5.13;;;1.73;;
48847;SDS011;36611;51.638;5.784;2023-01-08T08:58:35;6.63;;;2.13;;
48847;SDS011;36611;51.638;5.784;2023-01-08T09:01:02;4.72;;;1.85;;
48847;SDS011;36611;51.638;5.784;2023-01-08T09:03:29;8.32;;;1.65;;
48847;SDS011;36611;51.638;5.784;2023-01-08T09:05:56;8.07;;;1.80;;
48847;SDS011;36611;51.638;5.784;2023-01-08T09:08:25;3.03;;;1.40;;
48847;SDS011;36611;51.638;5.784;2023-01-08T09:10:51;8.10;;;1.92;;
48847;SDS011;36611;51.638;5.784;2023-01-08T09:13:18;7.18;;;1.58;;
48847;SDS011;36611;51.638;5.784;2023-01-08T09:15:45;6.55;;;1.65;;
48847;SDS011;36611;51.638;5.784;2023-01-08T09:18:11;6.63;;;1.80;;
48847;SDS011;36611;51.638;5.784;2023-01-08T09:20:41;4.97;;;1.83;;
48847;SDS011;36611;51.638;5.784;2023-01-08T09:23:08;10.00;;;1.80;;
48847;SDS011;36611;51.638;5.784;2023-01-08T09:25:34;4.47;;;1.60;;
48847;SDS011;36611;51.638;5.784;2023-01-08T09:28:02;7.95;;;1.63;;
48847;SDS011;36611;51.638;5.784;2023-01-08T09:30:33;5.63;;;1.85;;
48847;SDS011;36611;51.638;5.784;2023-01-08T09:33:00;6.25;;;2.58;;
48847;SDS011;36611;51.638;5.784;2023-01-08T09:35:29;7.40;;;1.83;;
48847;SDS011;36611;51.638;5.784;2023-01-08T09:37:59;6.53;;;1.92;;
48847;SDS011;36611;51.638;5.784;2023-01-08T09:43:34;4.72;;;1.85;;
48847;SDS011;36611;51.638;5.784;2023-01-08T09:46:04;5.40;;;1.67;;
48847;SDS011;36611;51.638;5.784;2023-01-08T09:48:37;7.20;;;2.22;;
48847;SDS011;36611;51.638;5.784;2023-01-08T09:51:09;6.07;;;2.30;;
48847;SDS011;36611;51.638;5.784;2023-01-08T09:53:38;7.25;;;2.17;;
48847;SDS011;36611;51.638;5.784;2023-01-08T09:56:10;9.98;;;2.80;;
48847;SDS011;36611;51.638;5.784;2023-01-08T09:58:42;9.02;;;2.20;;
48847;SDS011;36611;51.638;5.784;2023-01-08T10:01:12;6.85;;;2.03;;
48847;SDS011;36611;51.638;5.784;2023-01-08T10:03:46;6.30;;;2.10;;
48847;SDS011;36611;51.638;5.784;2023-01-08T10:06:16;6.03;;;2.00;;
48847;SDS011;36611;51.638;5.784;2023-01-08T10:08:43;6.22;;;1.83;;
48847;SDS011;36611;51.638;5.784;2023-01-08T10:11:12;5.43;;;2.33;;
48847;SDS011;36611;51.638;5.784;2023-01-08T10:13:40;7.50;;;2.33;;
48847;SDS011;36611;51.638;5.784;2023-01-08T10:16:17;7.90;;;2.10;;
48847;SDS011;36611;51.638;5.784;2023-01-08T10:18:50;7.43;;;2.30;;
48847;SDS011;36611;51.638;5.784;2023-01-08T10:21:16;11.30;;;2.80;;
48847;SDS011;36611;51.638;5.784;2023-01-08T10:23:50;7.82;;;2.85;;
48847;SDS011;36611;51.638;5.784;2023-01-08T10:26:28;5.45;;;2.10;;
48847;SDS011;36611;51.638;5.784;2023-01-08T10:31:52;7.78;;;1.95;;
48847;SDS011;36611;51.638;5.784;2023-01-08T10:34:30;5.05;;;1.63;;
48847;SDS011;36611;51.638;5.784;2023-01-08T10:37:21;8.80;;;1.90;;
48847;SDS011;36611;51.638;5.784;2023-01-08T10:39:48;7.18;;;2.08;;
48847;SDS011;36611;51.638;5.784;2023-01-08T10:42:16;8.75;;;2.45;;
48847;SDS011;36611;51.638;5.784;2023-01-08T10:44:53;7.38;;;1.80;;
48847;SDS011;36611;51.638;5.784;2023-01-08T10:47:23;6.45;;;1.92;;
48847;SDS011;36611;51.638;5.784;2023-01-08T10:49:52;6.55;;;2.45;;
48847;SDS011;36611;51.638;5.784;2023-01-08T10:52:24;5.35;;;2.00;;
48847;SDS011;36611;51.638;5.784;2023-01-08T10:54:53;3.78;;;1.48;;
48847;SDS011;36611;51.638;5.784;2023-01-08T10:59:54;3.10;;;1.40;;
48847;SDS011;36611;51.638;5.784;2023-01-08T11:04:54;4.30;;;1.58;;
48847;SDS011;36611;51.638;5.784;2023-01-08T11:07:22;2.42;;;1.27;;
48847;SDS011;36611;51.638;5.784;2023-01-08T11:09:49;4.55;;;1.20;;
48847;SDS011;36611;51.638;5.784;2023-01-08T11:12:35;2.97;;;1.02;;
48847;SDS011;36611;51.638;5.784;2023-01-08T11:15:27;5.13;;;1.15;;
48847;SDS011;36611;51.638;5.784;2023-01-08T11:20:46;1.75;;;0.70;;
48847;SDS011;36611;51.638;5.784;2023-01-08T11:23:17;3.55;;;1.08;;
48847;SDS011;36611;51.638;5.784;2023-01-08T11:28:50;2.42;;;0.93;;
48847;SDS011;36611;51.638;5.784;2023-01-08T11:31:33;2.38;;;0.98;;
48847;SDS011;36611;51.638;5.784;2023-01-08T11:34:11;2.53;;;0.90;;
48847;SDS011;36611;51.638;5.784;2023-01-08T11:36:46;1.75;;;0.73;;
48847;SDS011;36611;51.638;5.784;2023-01-08T11:39:16;2.35;;;0.80;;
48847;SDS011;36611;51.638;5.784;2023-01-08T11:44:37;2.95;;;0.80;;
48847;SDS011;36611;51.638;5.784;2023-01-08T11:50:31;0.90;;;0.60;;
48847;SDS011;36611;51.638;5.784;2023-01-08T11:58:20;2.15;;;0.70;;
48847;SDS011;36611;51.638;5.784;2023-01-08T12:04:02;3.35;;;2.05;;
48847;SDS011;36611;51.638;5.784;2023-01-08T12:06:58;10.50;;;3.88;;
48847;SDS011;36611;51.638;5.784;2023-01-08T12:14:47;2.03;;;0.98;;
48847;SDS011;36611;51.638;5.784;2023-01-08T12:20:20;3.35;;;1.33;;
48847;SDS011;36611;51.638;5.784;2023-01-08T12:36:04;4.75;;;1.00;;
48847;SDS011;36611;51.638;5.784;2023-01-08T12:38:39;3.15;;;1.10;;
48847;SDS011;36611;51.638;5.784;2023-01-08T12:41:10;3.15;;;1.10;;
48847;SDS011;36611;51.638;5.784;2023-01-08T12:46:08;3.45;;;1.35;;
48847;SDS011;36611;51.638;5.784;2023-01-08T12:48:39;6.35;;;1.50;;
48847;SDS011;36611;51.638;5.784;2023-01-08T12:51:09;4.28;;;1.25;;
48847;SDS011;36611;51.638;5.784;2023-01-08T12:56:42;2.38;;;1.20;;
48847;SDS011;36611;51.638;5.784;2023-01-08T12:59:23;4.78;;;1.38;;
48847;SDS011;36611;51.638;5.784;2023-01-08T13:02:29;4.07;;;1.42;;
48847;SDS011;36611;51.638;5.784;2023-01-08T13:05:10;3.75;;;0.98;;
48847;SDS011;36611;51.638;5.784;2023-01-08T13:07:45;3.67;;;1.13;;
48847;SDS011;36611;51.638;5.784;2023-01-08T13:12:53;3.85;;;1.35;;
48847;SDS011;36611;51.638;5.784;2023-01-08T13:15:21;3.63;;;1.10;;
48847;SDS011;36611;51.638;5.784;2023-01-08T13:17:52;4.88;;;1.15;;
48847;SDS011;36611;51.638;5.784;2023-01-08T13:20:22;4.03;;;1.08;;
48847;SDS011;36611;51.638;5.784;2023-01-08T13:22:55;4.43;;;1.17;;
48847;SDS011;36611;51.638;5.784;2023-01-08T13:27:50;4.53;;;1.15;;
48847;SDS011;36611;51.638;5.784;2023-01-08T13:33:25;2.72;;;0.90;;
48847;SDS011;36611;51.638;5.784;2023-01-08T13:36:53;4.03;;;1.10;;
48847;SDS011;36611;51.638;5.784;2023-01-08T13:41:35;3.85;;;1.02;;
48847;SDS011;36611;51.638;5.784;2023-01-08T13:44:11;6.95;;;2.03;;
48847;SDS011;36611;51.638;5.784;2023-01-08T13:46:52;2.60;;;0.93;;
48847;SDS011;36611;51.638;5.784;2023-01-08T13:51:58;5.15;;;1.20;;
48847;SDS011;36611;51.638;5.784;2023-01-08T13:54:30;5.75;;;1.10;;
48847;SDS011;36611;51.638;5.784;2023-01-08T13:57:02;6.13;;;1.13;;
48847;SDS011;36611;51.638;5.784;2023-01-08T13:59:42;5.55;;;1.30;;
48847;SDS011;36611;51.638;5.784;2023-01-08T14:02:21;3.63;;;1.30;;
48847;SDS011;36611;51.638;5.784;2023-01-08T14:04:52;3.97;;;1.13;;
48847;SDS011;36611;51.638;5.784;2023-01-08T14:07:20;4.28;;;1.20;;
48847;SDS011;36611;51.638;5.784;2023-01-08T14:09:49;5.40;;;1.33;;
48847;SDS011;36611;51.638;5.784;2023-01-08T14:12:19;4.05;;;1.00;;
48847;SDS011;36611;51.638;5.784;2023-01-08T14:14:49;9.02;;;2.10;;
48847;SDS011;36611;51.638;5.784;2023-01-08T14:17:19;5.88;;;1.35;;
48847;SDS011;36611;51.638;5.784;2023-01-08T14:19:56;3.50;;;1.45;;
48847;SDS011;36611;51.638;5.784;2023-01-08T14:22:32;5.18;;;1.52;;
48847;SDS011;36611;51.638;5.784;2023-01-08T14:25:02;5.05;;;1.40;;
48847;SDS011;36611;51.638;5.784;2023-01-08T14:27:31;5.82;;;1.52;;
48847;SDS011;36611;51.638;5.784;2023-01-08T14:29:59;5.60;;;1.55;;
48847;SDS011;36611;51.638;5.784;2023-01-08T14:32:27;3.28;;;1.08;;
48847;SDS011;36611;51.638;5.784;2023-01-08T14:34:56;5.43;;;1.63;;
48847;SDS011;36611;51.638;5.784;2023-01-08T14:37:25;4.88;;;1.10;;
48847;SDS011;36611;51.638;5.784;2023-01-08T14:39:51;5.05;;;1.33;;
48847;SDS011;36611;51.638;5.784;2023-01-08T14:42:33;8.25;;;1.42;;
48847;SDS011;36611;51.638;5.784;2023-01-08T14:47:48;6.25;;;1.58;;
48847;SDS011;36611;51.638;5.784;2023-01-08T14:50:19;3.83;;;1.30;;
48847;SDS011;36611;51.638;5.784;2023-01-08T14:52:47;5.00;;;1.25;;
48847;SDS011;36611;51.638;5.784;2023-01-08T14:55:15;8.38;;;1.90;;
48847;SDS011;36611;51.638;5.784;2023-01-08T14:57:45;5.53;;;1.10;;
48847;SDS011;36611;51.638;5.784;2023-01-08T15:00:17;3.90;;;1.20;;
48847;SDS011;36611;51.638;5.784;2023-01-08T15:02:47;6.35;;;1.50;;
48847;SDS011;36611;51.638;5.784;2023-01-08T15:05:19;4.32;;;1.08;;
48847;SDS011;36611;51.638;5.784;2023-01-08T15:08:02;4.57;;;1.38;;
48847;SDS011;36611;51.638;5.784;2023-01-08T15:10:56;5.15;;;1.20;;
48847;SDS011;36611;51.638;5.784;2023-01-08T15:13:25;4.10;;;1.13;;
48847;SDS011;36611;51.638;5.784;2023-01-08T15:15:58;3.53;;;1.35;;
48847;SDS011;36611;51.638;5.784;2023-01-08T15:18:28;3.13;;;1.13;;
48847;SDS011;36611;51.638;5.784;2023-01-08T15:20:55;4.90;;;1.40;;
48847;SDS011;36611;51.638;5.784;2023-01-08T15:23:27;5.53;;;1.02;;
48847;SDS011;36611;51.638;5.784;2023-01-08T15:26:02;4.15;;;1.23;;
48847;SDS011;36611;51.638;5.784;2023-01-08T15:28:29;6.22;;;1.45;;
48847;SDS011;36611;51.638;5.784;2023-01-08T15:30:56;6.43;;;1.30;;
48847;SDS011;36611;51.638;5.784;2023-01-08T15:33:23;3.85;;;1.42;;
48847;SDS011;36611;51.638;5.784;2023-01-08T15:35:51;4.05;;;1.40;;
48847;SDS011;36611;51.638;5.784;2023-01-08T15:38:18;4.10;;;1.30;;
48847;SDS011;36611;51.638;5.784;2023-01-08T15:40:49;5.82;;;1.50;;
48847;SDS011;36611;51.638;5.784;2023-01-08T15:43:18;4.03;;;1.23;;
48847;SDS011;36611;51.638;5.784;2023-01-08T15:45:45;3.55;;;1.20;;
48847;SDS011;36611;51.638;5.784;2023-01-08T15:48:13;4.45;;;1.20;;
48847;SDS011;36611;51.638;5.784;2023-01-08T15:50:41;4.47;;;1.20;;
48847;SDS011;36611;51.638;5.784;2023-01-08T15:53:11;4.85;;;1.20;;
48847;SDS011;36611;51.638;5.784;2023-01-08T15:55:38;3.30;;;1.10;;
48847;SDS011;36611;51.638;5.784;2023-01-08T15:58:11;3.63;;;1.10;;
48847;SDS011;36611;51.638;5.784;2023-01-08T16:00:40;2.00;;;1.10;;
48847;SDS011;36611;51.638;5.784;2023-01-08T16:03:07;3.95;;;1.23;;
48847;SDS011;36611;51.638;5.784;2023-01-08T16:05:34;5.95;;;1.45;;
48847;SDS011;36611;51.638;5.784;2023-01-08T16:08:02;4.28;;;1.17;;
48847;SDS011;36611;51.638;5.784;2023-01-08T16:10:30;4.03;;;1.38;;
48847;SDS011;36611;51.638;5.784;2023-01-08T16:12:58;4.05;;;1.00;;
48847;SDS011;36611;51.638;5.784;2023-01-08T16:15:26;5.63;;;1.35;;
48847;SDS011;36611;51.638;5.784;2023-01-08T16:17:56;4.20;;;1.30;;
48847;SDS011;36611;51.638;5.784;2023-01-08T16:20:23;4.50;;;1.30;;
48847;SDS011;36611;51.638;5.784;2023-01-08T16:22:50;2.55;;;1.08;;
48847;SDS011;36611;51.638;5.784;2023-01-08T16:25:16;2.65;;;1.00;;
48847;SDS011;36611;51.638;5.784;2023-01-08T16:27:43;2.88;;;1.23;;
48847;SDS011;36611;51.638;5.784;2023-01-08T16:30:11;5.35;;;1.45;;
48847;SDS011;36611;51.638;5.784;2023-01-08T16:32:40;6.03;;;1.40;;
48847;SDS011;36611;51.638;5.784;2023-01-08T16:35:08;3.28;;;1.00;;
48847;SDS011;36611;51.638;5.784;2023-01-08T16:37:36;3.50;;;1.67;;